createdAt,value
2023-02-11T00:01:44.535Z,78.70
2023-02-11T00:04:12.424Z,72.80
2023-02-11T00:06:40.426Z,75.80
2023-02-11T00:09:08.742Z,75.30
2023-02-11T00:11:36.967Z,77.20
2023-02-11T00:14:13.583Z,78.70
2023-02-11T00:16:41.551Z,78.60
2023-02-11T00:19:09.867Z,79.40
2023-02-11T00:21:37.795Z,79.60
2023-02-11T00:24:05.959Z,76.40
2023-02-11T00:26:35.895Z,76.30
2023-02-11T00:29:13.789Z,75.10
2023-02-11T00:31:42.148Z,76.10
2023-02-11T00:34:10.176Z,78.10
2023-02-11T00:36:40.264Z,73.10
2023-02-11T00:39:09.537Z,76.30
2023-02-11T00:41:38.864Z,79.50
2023-02-11T00:44:07.194Z,85.60
2023-02-11T00:46:35.226Z,80.20
2023-02-11T00:49:03.407Z,79.00
2023-02-11T00:51:31.343Z,88.10
2023-02-11T00:53:59.399Z,94.10
2023-02-11T00:56:27.384Z,80.30
2023-02-11T00:58:57.485Z,76.80
2023-02-11T01:01:25.778Z,76.30
2023-02-11T01:03:53.747Z,77.70
2023-02-11T01:06:23.762Z,77.10
2023-02-11T01:08:51.768Z,75.80
2023-02-11T01:11:21.862Z,73.10
2023-02-11T01:13:50.418Z,69.50
2023-02-11T01:16:20.156Z,71.30
2023-02-11T01:18:48.503Z,74.20
2023-02-11T01:22:11.577Z,76.30
2023-02-11T01:24:39.559Z,79.70
2023-02-11T01:27:08.576Z,76.70
2023-02-11T01:29:36.586Z,74.50
2023-02-11T01:32:04.715Z,73.10
2023-02-11T01:34:32.624Z,73.30
2023-02-11T01:37:00.982Z,76.10
2023-02-11T01:39:36.780Z,77.20
2023-02-11T01:42:06.544Z,77.30
2023-02-11T01:44:38.212Z,78.30
2023-02-11T01:47:06.635Z,71.60
2023-02-11T01:49:43.404Z,74.40
2023-02-11T01:52:21.718Z,71.30
2023-02-11T01:55:13.480Z,71.30
2023-02-11T01:57:45.683Z,67.00
2023-02-11T02:00:41.839Z,64.50
2023-02-11T02:03:17.149Z,60.40
2023-02-11T02:06:29.555Z,62.90
2023-02-11T02:09:05.149Z,62.90
2023-02-11T02:11:33.140Z,65.90
2023-02-11T02:14:01.158Z,64.90
2023-02-11T02:16:35.047Z,58.80
2023-02-11T02:19:33.751Z,60.20
2023-02-11T02:22:14.515Z,65.70
2023-02-11T02:25:01.275Z,65.70
2023-02-11T02:27:42.147Z,64.30
2023-02-11T02:30:42.341Z,60.20
2023-02-11T02:33:34.645Z,59.90
2023-02-11T02:36:14.417Z,60.30
2023-02-11T02:38:56.842Z,61.00
2023-02-11T02:41:30.654Z,65.40
2023-02-11T02:43:59.116Z,63.70
2023-02-11T02:46:31.712Z,62.00
2023-02-11T02:49:01.782Z,60.60
2023-02-11T02:51:51.121Z,65.30
2023-02-11T02:54:28.002Z,75.80
2023-02-11T02:56:59.630Z,70.40
2023-02-11T02:59:36.719Z,77.50
2023-02-11T03:02:19.950Z,73.20
2023-02-11T03:05:17.770Z,64.80
2023-02-11T03:08:18.593Z,58.60
2023-02-11T03:10:51.332Z,62.90
2023-02-11T03:13:24.646Z,64.10
2023-02-11T03:15:56.835Z,65.70
2023-02-11T03:18:29.126Z,66.10
2023-02-11T03:20:58.606Z,64.30
2023-02-11T03:23:35.443Z,61.90
2023-02-11T03:26:27.104Z,54.30
2023-02-11T03:29:10.609Z,54.90
2023-02-11T03:31:44.670Z,54.90
2023-02-11T03:34:23.130Z,57.40
2023-02-11T03:37:00.143Z,57.70
2023-02-11T03:39:36.146Z,53.40
2023-02-11T03:42:08.677Z,51.50
2023-02-11T03:44:44.636Z,50.40
2023-02-11T03:47:15.635Z,50.60
2023-02-11T03:49:48.354Z,52.70
2023-02-11T03:52:20.578Z,53.90
2023-02-11T03:54:54.097Z,52.60
2023-02-11T03:57:22.064Z,48.60
2023-02-11T04:00:06.735Z,49.10
2023-02-11T04:02:40.226Z,48.00
2023-02-11T04:05:16.334Z,49.40
2023-02-11T04:07:44.349Z,51.90
2023-02-11T04:10:13.029Z,52.40
2023-02-11T04:12:41.186Z,55.70
2023-02-11T04:15:09.841Z,54.30
2023-02-11T04:17:38.311Z,54.00
2023-02-11T04:20:06.405Z,57.30
2023-02-11T04:22:34.437Z,57.30
2023-02-11T04:25:02.889Z,62.20
2023-02-11T04:27:30.858Z,57.80
2023-02-11T04:29:58.986Z,55.70
2023-02-11T04:32:28.960Z,56.70
2023-02-11T04:34:56.962Z,58.30
2023-02-11T04:37:24.987Z,62.80
2023-02-11T04:39:52.927Z,64.10
2023-02-11T04:42:20.905Z,63.60
2023-02-11T04:44:48.809Z,57.20
2023-02-11T04:47:16.758Z,56.80
2023-02-11T04:49:44.825Z,58.00
2023-02-11T04:52:12.839Z,57.30
2023-02-11T04:54:41.054Z,58.80
2023-02-11T04:57:09.080Z,51.40
2023-02-11T04:59:37.070Z,50.20
2023-02-11T05:02:05.120Z,49.80
2023-02-11T05:04:33.058Z,54.60
2023-02-11T05:07:01.017Z,51.80
2023-02-11T05:09:29.062Z,52.40
2023-02-11T05:11:56.983Z,50.10
2023-02-11T05:14:24.862Z,48.80
2023-02-11T05:16:53.372Z,49.90
2023-02-11T05:19:21.446Z,49.00
2023-02-11T05:22:01.639Z,54.20
2023-02-11T05:24:32.250Z,50.20
2023-02-11T05:27:00.708Z,47.60
2023-02-11T05:29:28.816Z,44.70
2023-02-11T05:31:58.557Z,47.90
2023-02-11T05:34:26.570Z,48.30
2023-02-11T05:36:54.616Z,48.90
2023-02-11T05:39:22.707Z,48.20
2023-02-11T05:41:50.636Z,47.50
2023-02-11T05:44:19.088Z,45.20
2023-02-11T05:46:47.040Z,42.00
2023-02-11T05:49:17.111Z,42.90
2023-02-11T05:51:45.040Z,43.70
2023-02-11T05:54:13.142Z,42.40
2023-02-11T05:56:43.797Z,41.20
2023-02-11T05:59:16.428Z,39.30
2023-02-11T06:01:44.676Z,39.30
2023-02-11T06:04:12.678Z,40.00
2023-02-11T06:06:40.664Z,40.00
2023-02-11T06:09:10.552Z,42.50
2023-02-11T06:11:39.113Z,42.30
2023-02-11T06:14:07.174Z,42.30
2023-02-11T06:16:35.141Z,39.80
2023-02-11T06:19:03.063Z,38.20
2023-02-11T06:21:42.870Z,41.30
2023-02-11T06:24:12.684Z,39.20
2023-02-11T06:26:40.800Z,42.10
2023-02-11T06:29:08.901Z,39.50
2023-02-11T06:31:39.062Z,36.20
2023-02-11T06:34:09.515Z,38.30
2023-02-11T06:36:39.990Z,39.50
2023-02-11T06:39:08.780Z,41.50
2023-02-11T06:41:36.883Z,43.10
2023-02-11T06:44:06.347Z,42.40
2023-02-11T06:46:34.687Z,41.60
2023-02-11T06:49:03.494Z,42.60
2023-02-11T06:51:31.763Z,40.20
2023-02-11T06:53:59.859Z,43.40
2023-02-11T06:56:27.871Z,42.10
2023-02-11T06:58:56.710Z,37.90
2023-02-11T07:01:27.077Z,38.80
2023-02-11T07:03:55.305Z,45.10
2023-02-11T07:06:27.971Z,38.90
2023-02-11T07:08:56.555Z,39.70
2023-02-11T07:11:27.751Z,40.40
2023-02-11T07:14:00.562Z,37.70
2023-02-11T07:16:28.637Z,41.60
2023-02-11T07:18:56.680Z,40.40
2023-02-11T07:21:24.673Z,39.00
2023-02-11T07:23:52.880Z,37.60
2023-02-11T07:26:23.538Z,38.60
2023-02-11T07:28:53.015Z,43.90
2023-02-11T07:31:25.017Z,42.60
2023-02-11T07:33:55.512Z,55.00
2023-02-11T07:36:24.214Z,42.20
2023-02-11T07:38:52.188Z,44.60
2023-02-11T07:41:22.271Z,45.00
2023-02-11T07:43:51.031Z,42.10
2023-02-11T07:46:22.403Z,43.00
2023-02-11T07:48:51.063Z,46.70
2023-02-11T07:51:27.821Z,46.50
2023-02-11T07:53:57.534Z,42.40
2023-02-11T07:56:27.658Z,47.80
2023-02-11T07:58:59.955Z,47.10
2023-02-11T08:01:28.854Z,49.30
2023-02-11T08:04:00.313Z,54.50
2023-02-11T08:06:31.794Z,51.70
2023-02-11T08:09:05.973Z,42.50
2023-02-11T08:11:34.027Z,44.90
2023-02-11T08:14:02.330Z,45.90
2023-02-11T08:16:33.702Z,47.70
2023-02-11T08:19:11.951Z,46.60
2023-02-11T08:21:40.808Z,43.70
2023-02-11T08:24:10.768Z,42.30
2023-02-11T08:26:39.330Z,42.70
2023-02-11T08:29:11.099Z,39.70
2023-02-11T08:31:42.295Z,43.00
2023-02-11T08:34:12.069Z,44.80
2023-02-11T08:36:41.794Z,39.80
2023-02-11T08:39:19.656Z,42.20
2023-02-11T08:42:02.506Z,44.10
2023-02-11T08:44:30.634Z,43.50
2023-02-11T08:46:58.723Z,44.20
2023-02-11T08:49:26.788Z,44.10
2023-02-11T08:51:56.402Z,46.20
2023-02-11T08:54:24.459Z,47.90
2023-02-11T08:56:52.766Z,60.70
2023-02-11T08:59:20.780Z,54.10
2023-02-11T09:01:48.908Z,42.70
2023-02-11T09:04:17.515Z,48.50
2023-02-11T09:06:46.136Z,45.50
2023-02-11T09:09:15.624Z,48.40
2023-02-11T09:11:45.248Z,46.30
2023-02-11T09:14:18.753Z,48.00
2023-02-11T09:16:46.911Z,56.90
2023-02-11T09:19:14.905Z,46.50
2023-02-11T09:21:43.089Z,48.60
2023-02-11T09:24:11.670Z,44.30
2023-02-11T09:26:43.365Z,43.90
2023-02-11T09:29:11.642Z,47.10
2023-02-11T09:31:39.751Z,47.80
2023-02-11T09:34:07.889Z,43.70
2023-02-11T09:36:38.776Z,46.80
2023-02-11T09:39:11.933Z,45.10
2023-02-11T09:41:48.618Z,53.10
2023-02-11T09:44:21.322Z,47.00
2023-02-11T09:46:58.338Z,55.60
2023-02-11T09:49:37.187Z,52.00
2023-02-11T09:52:11.571Z,53.20
2023-02-11T09:55:06.226Z,48.50
2023-02-11T09:57:36.989Z,49.30
2023-02-11T10:00:19.857Z,45.70
2023-02-11T10:03:13.225Z,45.40
2023-02-11T10:06:06.921Z,50.30
2023-02-11T10:08:59.819Z,49.40
2023-02-11T10:11:39.717Z,53.40
2023-02-11T10:14:37.012Z,49.50
2023-02-11T10:17:44.231Z,47.00
2023-02-11T10:20:40.432Z,47.70
2023-02-11T10:23:25.014Z,51.60
2023-02-11T10:25:56.475Z,53.70
2023-02-11T10:28:31.183Z,50.50
2023-02-11T10:31:16.284Z,51.70
2023-02-11T10:33:46.873Z,48.00
2023-02-11T10:36:17.706Z,51.70
2023-02-11T10:38:45.612Z,50.10
2023-02-11T10:41:18.272Z,53.20
2023-02-11T10:43:46.172Z,56.90
2023-02-11T10:46:22.283Z,51.60
2023-02-11T10:48:53.461Z,50.40
2023-02-11T10:51:28.683Z,46.40
2023-02-11T10:54:13.325Z,49.10
2023-02-11T10:59:46.292Z,69.70
2023-02-11T11:02:24.550Z,63.60
2023-02-11T11:04:57.896Z,58.80
2023-02-11T11:07:28.781Z,81.30
2023-02-11T11:10:02.758Z,77.80
2023-02-11T11:12:30.733Z,55.00
2023-02-11T11:15:23.709Z,58.20
2023-02-11T11:18:21.431Z,52.30
2023-02-11T11:21:05.812Z,53.50
2023-02-11T11:23:37.975Z,56.30
2023-02-11T11:26:15.169Z,53.10
2023-02-11T11:28:49.194Z,48.90
2023-02-11T11:31:20.825Z,52.60
2023-02-11T11:33:53.026Z,45.90
2023-02-11T11:36:24.831Z,46.90
2023-02-11T11:38:57.806Z,47.60
2023-02-11T11:41:27.565Z,52.00
2023-02-11T11:44:17.850Z,48.60
2023-02-11T11:46:49.414Z,46.80
2023-02-11T11:49:30.130Z,43.30
2023-02-11T11:52:03.712Z,48.20
2023-02-11T11:54:31.951Z,46.60
2023-02-11T11:57:13.304Z,45.80
2023-02-11T11:59:42.056Z,53.90
2023-02-11T12:02:28.836Z,47.40
2023-02-11T12:05:25.512Z,50.40
2023-02-11T12:08:12.351Z,47.90
2023-02-11T12:10:50.478Z,47.10
2023-02-11T12:13:47.479Z,48.50
2023-02-11T12:16:21.621Z,49.40
2023-02-11T12:19:26.971Z,56.30
2023-02-11T12:22:00.625Z,53.30
2023-02-11T12:24:45.918Z,49.40
2023-02-11T12:27:41.889Z,50.00
2023-02-11T12:30:29.217Z,48.70
2023-02-11T12:33:22.965Z,52.00
2023-02-11T12:36:03.246Z,51.60
2023-02-11T12:38:53.017Z,47.70
2023-02-11T12:41:51.493Z,47.10
2023-02-11T12:45:01.218Z,44.00
2023-02-11T12:48:13.037Z,46.60
2023-02-11T12:51:03.180Z,50.70
2023-02-11T12:53:53.928Z,50.20
2023-02-11T12:56:32.524Z,51.90
2023-02-11T12:59:05.414Z,52.60
2023-02-11T13:01:39.842Z,52.90
2023-02-11T13:04:35.380Z,48.70
2023-02-11T13:09:49.312Z,54.00
2023-02-11T13:12:37.149Z,52.00
2023-02-11T13:15:13.175Z,54.20
2023-02-11T13:17:52.392Z,54.60
2023-02-11T13:20:25.640Z,49.80
2023-02-11T13:23:17.452Z,52.90
2023-02-11T13:26:13.393Z,57.20
2023-02-11T13:29:12.335Z,59.10
2023-02-11T13:31:40.287Z,54.00
2023-02-11T13:34:25.993Z,52.30
2023-02-11T13:36:56.007Z,57.80
2023-02-11T13:39:24.839Z,55.60
2023-02-11T13:42:03.396Z,55.60
2023-02-11T13:44:35.007Z,51.10
2023-02-11T13:47:08.159Z,51.60
2023-02-11T13:49:50.806Z,55.00
2023-02-11T13:52:22.278Z,59.30
2023-02-11T13:54:53.553Z,50.60
2023-02-11T13:57:29.669Z,51.70
2023-02-11T14:00:09.133Z,52.60
2023-02-11T14:02:55.990Z,56.30
2023-02-11T14:05:49.933Z,55.80
2023-02-11T14:08:39.833Z,51.60
2023-02-11T14:11:12.500Z,53.30
2023-02-11T14:13:49.472Z,55.50
2023-02-11T14:16:36.982Z,50.60
2023-02-11T14:19:06.878Z,47.60
2023-02-11T14:21:38.537Z,45.40
2023-02-11T14:24:07.253Z,49.40
2023-02-11T14:26:42.667Z,50.10
2023-02-11T14:29:20.202Z,51.80
2023-02-11T14:32:25.134Z,48.20
2023-02-11T14:35:20.713Z,48.40
2023-02-11T14:40:41.229Z,52.10
2023-02-11T14:43:16.992Z,49.40
2023-02-11T14:45:59.949Z,49.70
2023-02-11T14:48:31.646Z,51.80
2023-02-11T14:51:18.237Z,49.60
2023-02-11T14:53:52.251Z,53.20
2023-02-11T14:56:32.820Z,51.80
2023-02-11T14:59:02.862Z,53.50
2023-02-11T15:01:34.031Z,52.90
2023-02-11T15:04:04.705Z,86.80
2023-02-11T15:06:37.321Z,55.90
2023-02-11T15:09:16.291Z,75.70
2023-02-11T15:11:46.921Z,56.70
2023-02-11T15:14:35.105Z,60.80
2023-02-11T15:17:08.118Z,57.60
2023-02-11T15:19:46.787Z,59.40
2023-02-11T15:22:24.924Z,61.60
2023-02-11T15:25:16.787Z,59.20
2023-02-11T15:27:50.753Z,64.10
2023-02-11T15:30:21.792Z,62.30
2023-02-11T15:33:00.530Z,58.40
2023-02-11T15:35:41.083Z,61.30
2023-02-11T15:38:13.064Z,65.80
2023-02-11T15:40:41.070Z,61.10
2023-02-11T15:43:10.775Z,58.80
2023-02-11T15:45:56.558Z,64.30
2023-02-11T15:48:56.419Z,64.10
2023-02-11T15:51:31.672Z,65.40
2023-02-11T15:54:07.081Z,60.00
2023-02-11T15:56:42.242Z,63.10
2023-02-11T15:59:15.967Z,60.60
2023-02-11T16:01:45.873Z,63.10
2023-02-11T16:04:49.120Z,65.30
2023-02-11T16:07:47.769Z,61.70
2023-02-11T16:10:18.310Z,57.40
2023-02-11T16:13:12.304Z,57.70
2023-02-11T16:15:58.607Z,61.40
2023-02-11T16:18:38.127Z,60.00
2023-02-11T16:21:17.903Z,63.40
2023-02-11T16:23:55.025Z,61.30
2023-02-11T16:26:36.639Z,63.30
2023-02-11T16:29:08.071Z,59.30
2023-02-11T16:31:42.410Z,59.30
2023-02-11T16:34:19.421Z,64.90
2023-02-11T16:36:48.825Z,64.90
2023-02-11T16:39:18.190Z,64.10
2023-02-11T16:41:46.079Z,59.70
2023-02-11T16:44:14.046Z,61.10
2023-02-11T16:46:42.090Z,60.20
2023-02-11T16:49:16.707Z,64.90
2023-02-11T16:54:19.728Z,73.10
2023-02-11T16:57:23.135Z,62.00
2023-02-11T16:59:52.539Z,63.90
2023-02-11T17:02:27.580Z,59.50
2023-02-11T17:04:59.023Z,62.50
2023-02-11T17:07:27.830Z,62.80
2023-02-11T17:09:56.719Z,68.20
2023-02-11T17:12:27.571Z,58.40
2023-02-11T17:14:55.559Z,61.70
2023-02-11T17:17:24.019Z,60.50
2023-02-11T17:19:52.037Z,61.90
2023-02-11T17:22:19.942Z,62.90
2023-02-11T17:24:48.734Z,65.10
2023-02-11T17:27:17.638Z,65.50
2023-02-11T17:29:46.738Z,63.70
2023-02-11T17:32:14.760Z,67.00
2023-02-11T17:34:43.065Z,65.00
2023-02-11T17:37:11.230Z,63.90
2023-02-11T17:39:40.382Z,61.20
2023-02-11T17:42:08.901Z,66.70
2023-02-11T17:44:37.359Z,65.40
2023-02-11T17:47:05.484Z,61.00
2023-02-11T17:49:33.482Z,57.70
2023-02-11T17:52:01.415Z,64.50
2023-02-11T17:54:29.316Z,66.50
2023-02-11T17:56:58.558Z,63.50
2023-02-11T17:59:28.575Z,62.90
2023-02-11T18:01:56.645Z,59.80
2023-02-11T18:04:24.576Z,62.30
2023-02-11T18:06:53.704Z,65.20
2023-02-11T18:09:21.812Z,64.20
2023-02-11T18:11:53.183Z,63.20
2023-02-11T18:14:24.138Z,62.70
2023-02-11T18:16:53.167Z,62.40
2023-02-11T18:19:21.750Z,63.30
2023-02-11T18:21:55.505Z,66.10
2023-02-11T18:24:23.939Z,59.00
2023-02-11T18:26:52.340Z,57.90
2023-02-11T18:29:20.569Z,57.20
2023-02-11T18:31:54.936Z,60.30
2023-02-11T18:34:23.558Z,63.30
2023-02-11T18:36:55.680Z,63.50
2023-02-11T18:39:24.614Z,61.20
2023-02-11T18:41:56.960Z,60.50
2023-02-11T18:44:27.212Z,61.20
2023-02-11T18:46:55.297Z,68.80
2023-02-11T18:49:23.282Z,67.90
2023-02-11T18:51:51.319Z,70.10
2023-02-11T18:54:19.804Z,73.80
2023-02-11T18:56:48.226Z,69.10
2023-02-11T18:59:16.751Z,65.10
2023-02-11T19:01:47.113Z,63.00
2023-02-11T19:04:20.057Z,63.20
2023-02-11T19:06:52.372Z,67.90
2023-02-11T19:09:20.883Z,75.80
2023-02-11T19:11:54.310Z,68.20
2023-02-11T19:14:25.696Z,69.10
2023-02-11T19:16:57.979Z,65.80
2023-02-11T19:19:29.792Z,71.10
2023-02-11T19:21:59.913Z,69.00
2023-02-11T19:24:29.254Z,74.20
2023-02-11T19:26:59.766Z,72.40
2023-02-11T19:29:29.789Z,71.50
2023-02-11T19:31:57.869Z,65.80
2023-02-11T19:34:25.788Z,62.20
2023-02-11T19:36:54.533Z,67.20
2023-02-11T19:39:24.909Z,65.40
2023-02-11T19:41:53.183Z,75.00
2023-02-11T19:44:21.104Z,71.70
2023-02-11T19:46:50.391Z,70.10
2023-02-11T19:49:26.867Z,64.20
2023-02-11T19:51:58.424Z,67.70
2023-02-11T19:54:29.171Z,68.60
2023-02-11T19:56:58.128Z,69.40
2023-02-11T19:59:26.811Z,69.50
2023-02-11T20:01:54.905Z,66.20
2023-02-11T20:04:25.171Z,68.90
2023-02-11T20:06:53.501Z,71.50
2023-02-11T20:09:22.862Z,64.90
2023-02-11T20:11:50.936Z,65.50
2023-02-11T20:14:21.512Z,66.30
2023-02-11T20:16:50.465Z,66.50
2023-02-11T20:19:21.671Z,66.50
2023-02-11T20:21:53.065Z,69.60
2023-02-11T20:24:21.911Z,76.60
2023-02-11T20:26:51.797Z,78.10
2023-02-11T20:29:19.853Z,76.60
2023-02-11T20:31:50.150Z,75.00
2023-02-11T20:34:18.402Z,74.70
2023-02-11T20:36:52.394Z,74.50
2023-02-11T20:39:24.901Z,71.40
2023-02-11T20:41:54.059Z,77.00
2023-02-11T20:44:22.881Z,73.90
2023-02-11T20:46:54.093Z,76.40
2023-02-11T20:49:24.153Z,74.60
2023-02-11T20:51:54.111Z,75.60
2023-02-11T20:54:23.723Z,77.00
2023-02-11T20:56:53.980Z,82.70
2023-02-11T20:59:23.178Z,82.00
2023-02-11T21:01:56.271Z,75.90
2023-02-11T21:04:30.919Z,83.20
2023-02-11T21:07:01.212Z,78.20
2023-02-11T21:09:32.049Z,80.40
2023-02-11T21:12:00.680Z,75.10
2023-02-11T21:14:29.323Z,81.50
2023-02-11T21:16:58.182Z,82.40
2023-02-11T21:19:27.206Z,74.70
2023-02-11T21:21:57.377Z,77.20
2023-02-11T21:24:25.531Z,74.80
2023-02-11T21:26:53.683Z,80.90
2023-02-11T21:29:22.217Z,84.90
2023-02-11T21:31:51.540Z,83.50
2023-02-11T21:34:20.794Z,74.40
2023-02-11T21:36:51.264Z,78.00
2023-02-11T21:39:20.395Z,81.70
2023-02-11T21:41:48.455Z,77.40
2023-02-11T21:44:16.543Z,79.30
2023-02-11T21:46:45.082Z,81.10
2023-02-11T21:49:13.187Z,77.40
2023-02-11T21:51:41.168Z,77.90
2023-02-11T21:54:11.212Z,75.50
2023-02-11T21:56:39.090Z,76.90
2023-02-11T21:59:07.489Z,87.50
2023-02-11T22:01:35.984Z,84.50
2023-02-11T22:04:04.684Z,82.00
2023-02-11T22:06:35.162Z,75.70
2023-02-11T22:09:06.616Z,81.40
2023-02-11T22:11:34.664Z,78.20
2023-02-11T22:14:02.842Z,79.50
2023-02-11T22:16:31.472Z,85.20
2023-02-11T22:19:00.921Z,84.50
2023-02-11T22:21:30.153Z,75.30
2023-02-11T22:23:58.601Z,77.00
2023-02-11T22:26:28.067Z,79.30
2023-02-11T22:28:56.450Z,84.10
2023-02-11T22:31:31.476Z,79.90
2023-02-11T22:34:00.452Z,74.00
2023-02-11T22:36:35.158Z,74.40
2023-02-11T22:39:09.425Z,79.00
2023-02-11T22:41:40.855Z,76.60
2023-02-11T22:44:09.301Z,91.70
2023-02-11T22:46:38.125Z,83.00
2023-02-11T22:49:07.493Z,78.40
2023-02-11T22:51:35.384Z,78.90
2023-02-11T22:54:06.167Z,93.60
2023-02-11T22:56:35.199Z,99.90
2023-02-11T22:59:06.385Z,79.10
2023-02-11T23:01:35.355Z,76.10
2023-02-11T23:04:05.782Z,76.50
2023-02-11T23:06:34.632Z,68.60
2023-02-11T23:09:10.412Z,66.90
2023-02-11T23:11:39.254Z,68.40
2023-02-11T23:14:08.878Z,74.10
2023-02-11T23:16:36.873Z,77.80
2023-02-11T23:19:08.657Z,84.10
2023-02-11T23:21:38.782Z,70.70
2023-02-11T23:24:15.995Z,69.70
2023-02-11T23:26:44.509Z,71.90
2023-02-11T23:29:12.454Z,72.10
2023-02-11T23:31:45.277Z,70.80
2023-02-11T23:34:18.564Z,74.90
2023-02-11T23:36:46.579Z,82.00
2023-02-11T23:39:15.931Z,81.90
2023-02-11T23:41:45.072Z,76.20
2023-02-11T23:44:13.171Z,72.50
2023-02-11T23:46:41.125Z,70.60
2023-02-11T23:49:09.089Z,72.70
2023-02-11T23:51:36.989Z,69.20
2023-02-11T23:54:04.938Z,69.00
2023-02-11T23:56:33.054Z,69.80
2023-02-11T23:59:00.942Z,68.50
